CST,Max TemperatureF,Mean TemperatureF,Min TemperatureF,Max Dew PointF,MeanDew PointF,Min DewpointF,Max Humidity, Mean Humidity, Min Humidity, Max Sea Level PressureIn, Mean Sea Level PressureIn, Min Sea Level PressureIn, Max VisibilityMiles, Mean VisibilityMiles, Min VisibilityMiles, Max Wind SpeedMPH, Mean Wind SpeedMPH, Max Gust SpeedMPH,PrecipitationIn, CloudCover, Events, WindDirDegrees
2012-2-1,60,42,23,28,20,18,86,52,19,30.16,30.12,30.09,10,10,10,12,2,,0.00,1,,234
2012-2-2,57,38,19,28,21,16,86,59,25,30.27,30.21,30.16,10,10,10,7,2,,0.00,1,,111
2012-2-3,46,42,37,36,33,27,87,72,46,30.28,30.21,30.11,10,9,2,29,13,38,0.64,7,Rain,90
2012-2-4,35,32,30,30,28,27,87,84,80,30.35,30.21,30.11,5,2,0,22,14,29,0.36,8,Rain-Snow,30
2012-2-5,32,26,21,27,21,18,86,82,80,30.44,30.39,30.36,10,5,0,7,1,,0.00,7,Fog,347
2012-2-6,33,25,17,25,19,14,86,83,70,30.33,30.25,30.18,10,3,0,5,1,,0.00,5,Fog,223
2012-2-7,33,28,24,28,26,19,86,81,75,30.48,30.35,30.22,10,8,3,15,6,18,0.00,7,Rain,14
2012-2-8,28,24,19,21,16,12,80,69,59,30.53,30.49,30.40,10,10,10,9,5,,0.00,6,,11
2012-2-9,35,28,21,28,24,18,86,77,70,30.37,30.23,30.08,10,9,5,10,3,,0.00,8,,203
2012-2-10,30,19,8,25,7,-2,86,61,45,30.50,30.27,30.06,10,10,7,25,12,34,0.00,2,,347
2012-2-11,17,9,1,1,-5,-9,67,56,42,30.79,30.69,30.57,10,10,10,15,8,20,0.00,2,,319
2012-2-12,33,16,-2,12,0,-9,78,60,30,30.63,30.48,30.22,10,10,10,12,3,,0.00,2,,195
2012-2-13,32,29,26,28,24,10,87,79,44,30.08,29.87,29.74,10,6,2,20,12,25,0.01,8,Rain-Snow,176
2012-2-14,42,32,21,34,26,18,93,81,65,29.87,29.84,29.79,10,5,0,9,4,,0.00,5,Fog,203
2012-2-15,39,32,24,32,28,21,93,82,75,30.05,29.93,29.88,7,4,1,10,3,,0.01,3,Rain,200
2012-2-16,42,32,23,28,25,18,86,71,49,30.30,30.23,30.12,10,10,7,8,4,,0.00,2,,259
2012-2-17,46,38,30,28,27,23,80,68,49,30.21,30.12,30.06,10,10,10,10,5,,0.00,2,,276
2012-2-18,39,28,17,25,20,12,86,69,48,30.30,30.23,30.17,10,10,10,9,2,,0.00,1,,34
2012-2-19,46,32,19,27,22,16,86,68,37,30.16,30.09,30.01,10,9,7,12,3,17,0.00,1,,151
2012-2-20,42,38,33,37,27,21,87,67,60,30.03,29.88,29.70,10,9,4,24,16,32,0.11,5,Rain,142
2012-2-21,48,39,30,34,28,25,87,67,43,29.87,29.79,29.66,10,10,7,17,10,31,0.00,2,,261
2012-2-22,53,42,32,34,30,27,80,64,44,29.65,29.55,29.48,10,10,10,13,5,20,0.00,2,,269
2012-2-23,44,40,35,39,36,28,87,80,70,29.57,29.38,29.26,10,9,2,26,8,37,0.04,7,Rain,33
2012-2-24,41,31,21,28,24,18,87,74,45,30.18,30.02,29.79,10,8,0,20,11,31,0.03,5,Fog-Rain,313
2012-2-25,37,26,15,23,16,10,79,64,48,30.33,30.20,29.92,10,10,10,20,8,25,0.00,1,,154
2012-2-26,55,44,33,27,23,18,70,43,23,30.12,29.90,29.75,10,10,10,24,15,32,0.00,1,,250
2012-2-27,39,29,19,21,15,12,74,57,39,30.55,30.45,30.29,10,10,10,12,6,16,0.00,1,,5
2012-2-28,51,42,32,46,32,21,87,67,52,30.31,29.98,29.61,10,9,2,25,11,33,0.08,7,Rain,137
2012-2-29,51,42,33,41,26,23,71,64,49,29.87,29.66,29.41,10,10,10,37,23,46,0.00,3,,278